createdAt,value
2022-12-18T00:00:27.518Z,99.90
2022-12-18T00:02:00.174Z,99.90
2022-12-18T00:03:34.706Z,99.90
2022-12-18T00:05:08.747Z,99.90
2022-12-18T00:06:40.815Z,99.90
2022-12-18T00:08:14.762Z,99.90
2022-12-18T00:09:48.053Z,99.90
2022-12-18T00:11:22.933Z,99.90
2022-12-18T00:12:55.997Z,99.90
2022-12-18T00:14:30.421Z,99.90
2022-12-18T00:16:05.711Z,99.90
2022-12-18T00:17:38.815Z,99.90
2022-12-18T00:19:12.810Z,99.90
2022-12-18T00:20:45.854Z,99.90
2022-12-18T00:22:18.899Z,99.90
2022-12-18T00:23:52.679Z,99.90
2022-12-18T00:25:25.757Z,99.90
2022-12-18T00:26:58.797Z,99.90
2022-12-18T00:28:30.867Z,99.90
2022-12-18T00:30:06.134Z,99.90
2022-12-18T00:31:38.911Z,99.90
2022-12-18T00:33:12.053Z,99.90
2022-12-18T00:34:45.114Z,99.90
2022-12-18T00:36:19.999Z,99.90
2022-12-18T00:37:53.056Z,99.90
2022-12-18T00:39:26.121Z,99.90
2022-12-18T00:40:58.278Z,99.90
2022-12-18T00:42:49.080Z,99.90
2022-12-18T00:44:22.467Z,99.90
2022-12-18T00:45:56.989Z,99.90
2022-12-18T00:47:30.113Z,99.90
2022-12-18T00:49:03.461Z,99.90
2022-12-18T00:50:36.567Z,99.90
2022-12-18T00:52:08.655Z,99.90
2022-12-18T00:53:42.154Z,99.90
2022-12-18T00:55:15.931Z,99.90
2022-12-18T00:56:49.987Z,99.90
2022-12-18T00:58:22.870Z,99.90
2022-12-18T00:59:55.926Z,99.90
2022-12-18T01:01:31.823Z,99.90
2022-12-18T01:03:06.419Z,99.90
2022-12-18T01:04:39.699Z,99.90
2022-12-18T01:06:16.027Z,99.90
2022-12-18T01:07:49.443Z,99.90
2022-12-18T01:09:22.468Z,99.90
2022-12-18T01:10:55.528Z,99.90
2022-12-18T01:12:27.662Z,99.90
2022-12-18T01:14:02.026Z,99.90
2022-12-18T01:15:35.053Z,99.90
2022-12-18T01:17:09.522Z,99.90
2022-12-18T01:18:42.650Z,99.90
2022-12-18T01:20:14.830Z,99.90
2022-12-18T01:21:47.917Z,99.90
2022-12-18T01:23:20.022Z,99.90
2022-12-18T01:24:53.866Z,99.90
2022-12-18T01:26:30.502Z,99.90
2022-12-18T01:28:02.851Z,99.90
2022-12-18T01:29:35.946Z,99.90
2022-12-18T01:31:17.873Z,99.90
2022-12-18T01:32:52.333Z,99.90
2022-12-18T01:34:25.277Z,99.90
2022-12-18T01:35:58.392Z,99.90
2022-12-18T01:37:31.498Z,99.90
2022-12-18T01:39:06.495Z,99.90
2022-12-18T01:40:39.656Z,99.90
2022-12-18T01:42:14.359Z,99.90
2022-12-18T01:43:50.420Z,99.90
2022-12-18T01:45:29.035Z,99.90
2022-12-18T01:47:01.443Z,99.90
2022-12-18T01:48:35.868Z,99.90
2022-12-18T01:50:13.248Z,99.90
2022-12-18T01:51:46.331Z,99.90
2022-12-18T01:53:22.957Z,99.90
2022-12-18T01:54:56.655Z,99.90
2022-12-18T01:56:30.101Z,99.90
2022-12-18T01:58:03.378Z,99.90
2022-12-18T01:59:36.691Z,99.90
2022-12-18T02:01:10.247Z,99.90
2022-12-18T02:02:43.162Z,99.90
2022-12-18T02:04:23.890Z,99.90
2022-12-18T02:06:08.072Z,99.90
2022-12-18T02:07:55.547Z,99.90
2022-12-18T02:09:34.149Z,99.90
2022-12-18T02:11:11.653Z,99.90
2022-12-18T02:12:49.391Z,99.90
2022-12-18T02:14:30.282Z,99.90
2022-12-18T02:16:09.137Z,99.90
2022-12-18T02:17:48.773Z,99.90
2022-12-18T02:19:39.805Z,99.90
2022-12-18T02:21:23.721Z,99.90
2022-12-18T02:23:08.875Z,99.90
2022-12-18T02:24:53.428Z,99.90
2022-12-18T02:26:36.563Z,99.90
2022-12-18T02:28:14.620Z,99.90
2022-12-18T02:29:58.020Z,99.90
2022-12-18T02:31:37.719Z,99.90
2022-12-18T02:33:12.803Z,99.90
2022-12-18T02:34:47.621Z,99.90
2022-12-18T02:36:23.957Z,99.90
2022-12-18T02:37:57.953Z,99.90
2022-12-18T02:39:32.928Z,99.90
2022-12-18T02:41:10.177Z,99.90
2022-12-18T02:42:45.328Z,99.90
2022-12-18T02:44:21.870Z,99.90
2022-12-18T02:45:58.139Z,99.90
2022-12-18T02:47:35.932Z,99.90
2022-12-18T02:49:21.501Z,99.90
2022-12-18T02:51:02.508Z,99.90
2022-12-18T02:52:42.529Z,99.90
2022-12-18T02:54:28.545Z,99.90
2022-12-18T02:56:07.661Z,99.90
2022-12-18T02:57:44.043Z,99.90
2022-12-18T02:59:23.175Z,99.90
2022-12-18T03:01:05.316Z,99.90
2022-12-18T03:02:46.821Z,99.90
2022-12-18T03:04:24.515Z,99.90
2022-12-18T03:06:00.979Z,99.90
2022-12-18T03:07:39.135Z,99.90
2022-12-18T03:09:19.696Z,99.90
2022-12-18T03:10:57.780Z,99.90
2022-12-18T03:12:33.100Z,99.90
2022-12-18T03:14:09.676Z,99.90
2022-12-18T03:15:47.531Z,99.90
2022-12-18T03:17:24.504Z,99.90
2022-12-18T03:19:01.042Z,99.90
2022-12-18T03:20:36.976Z,99.90
2022-12-18T03:22:10.161Z,99.90
2022-12-18T03:23:52.877Z,99.90
2022-12-18T03:25:27.907Z,99.90
2022-12-18T03:27:04.922Z,99.90
2022-12-18T03:28:41.738Z,99.90
2022-12-18T03:30:16.013Z,99.90
2022-12-18T03:31:57.682Z,99.90
2022-12-18T03:33:39.827Z,99.90
2022-12-18T03:35:17.398Z,99.90
2022-12-18T03:36:50.536Z,99.90
2022-12-18T03:38:23.868Z,99.90
2022-12-18T03:39:59.022Z,99.90
2022-12-18T03:41:35.209Z,99.90
2022-12-18T03:43:38.666Z,99.90
2022-12-18T03:45:20.735Z,99.90
2022-12-18T03:47:00.458Z,99.90
2022-12-18T03:48:40.200Z,99.90
2022-12-18T03:50:21.965Z,99.90
2022-12-18T03:52:02.254Z,99.90
2022-12-18T03:53:43.823Z,99.90
2022-12-18T03:55:19.621Z,99.90
2022-12-18T03:57:00.409Z,99.90
2022-12-18T03:58:37.717Z,99.90
2022-12-18T04:00:32.905Z,99.90
2022-12-18T04:02:15.804Z,99.90
2022-12-18T04:03:50.236Z,99.90
2022-12-18T04:05:27.832Z,99.90
2022-12-18T04:07:01.271Z,99.90
2022-12-18T04:08:35.729Z,99.90
2022-12-18T04:10:14.989Z,99.90
2022-12-18T04:11:48.138Z,99.90
2022-12-18T04:13:27.017Z,99.90
2022-12-18T04:15:00.186Z,99.90
2022-12-18T04:16:33.285Z,99.90
2022-12-18T04:18:11.206Z,99.90
2022-12-18T04:19:47.890Z,99.90
2022-12-18T04:21:20.670Z,99.90
2022-12-18T04:22:55.140Z,99.90
2022-12-18T04:24:28.313Z,99.90
2022-12-18T04:26:10.469Z,99.90
2022-12-18T04:27:58.925Z,99.90
2022-12-18T04:29:32.033Z,99.90
2022-12-18T04:31:05.728Z,99.90
2022-12-18T04:32:38.001Z,99.90
2022-12-18T04:34:12.435Z,99.90
2022-12-18T04:35:50.449Z,99.90
2022-12-18T04:37:24.336Z,99.90
2022-12-18T04:38:57.960Z,99.90
2022-12-18T04:40:31.667Z,99.90
2022-12-18T04:42:14.533Z,99.90
2022-12-18T04:43:47.679Z,99.90
2022-12-18T04:45:20.768Z,99.90
2022-12-18T04:46:52.873Z,99.90
2022-12-18T04:48:26.057Z,99.90
2022-12-18T04:50:00.513Z,99.90
2022-12-18T04:51:32.702Z,99.90
2022-12-18T04:53:05.821Z,99.90
2022-12-18T04:54:38.869Z,99.90
2022-12-18T04:56:14.395Z,99.90
2022-12-18T04:57:46.518Z,99.90
2022-12-18T04:59:19.592Z,99.90
2022-12-18T05:00:51.666Z,99.90
2022-12-18T05:02:24.907Z,99.90
2022-12-18T05:03:58.052Z,99.90
2022-12-18T05:05:32.739Z,99.90
2022-12-18T05:07:06.336Z,99.90
2022-12-18T05:08:39.453Z,99.90
2022-12-18T05:10:12.675Z,99.90
2022-12-18T05:11:45.754Z,99.90
2022-12-18T05:13:19.427Z,99.90
2022-12-18T05:14:52.485Z,99.90
2022-12-18T05:16:25.607Z,99.90
2022-12-18T05:17:59.425Z,99.90
2022-12-18T05:19:32.626Z,99.90
2022-12-18T05:21:07.718Z,99.90
2022-12-18T05:22:40.768Z,99.90
2022-12-18T05:24:13.845Z,99.90
2022-12-18T05:25:52.453Z,99.90
2022-12-18T05:27:25.989Z,99.90
2022-12-18T05:28:59.202Z,99.90
2022-12-18T05:30:31.289Z,99.90
2022-12-18T05:32:04.494Z,99.90
2022-12-18T05:33:38.417Z,99.90
2022-12-18T05:35:12.895Z,99.90
2022-12-18T05:36:46.357Z,99.90
2022-12-18T05:38:19.556Z,99.90
2022-12-18T05:39:52.668Z,99.90
2022-12-18T05:41:24.735Z,99.90
2022-12-18T05:42:57.811Z,99.90
2022-12-18T05:44:30.869Z,99.90
2022-12-18T05:46:06.575Z,99.90
2022-12-18T05:47:39.699Z,99.90
2022-12-18T05:49:12.744Z,99.90
2022-12-18T05:50:46.620Z,99.90
2022-12-18T05:52:21.079Z,99.90
2022-12-18T05:53:54.282Z,99.90
2022-12-18T05:55:27.495Z,99.90
2022-12-18T05:56:59.842Z,99.90
2022-12-18T05:58:33.943Z,99.90
2022-12-18T06:00:08.851Z,99.90
2022-12-18T06:01:45.384Z,99.90
2022-12-18T06:03:18.609Z,99.90
2022-12-18T06:04:51.716Z,99.90
2022-12-18T06:06:26.967Z,99.90
2022-12-18T06:08:00.597Z,99.90
2022-12-18T06:09:34.049Z,99.90
2022-12-18T06:11:06.133Z,99.90
2022-12-18T06:12:39.200Z,99.90
2022-12-18T06:14:12.472Z,99.90
2022-12-18T06:15:45.788Z,99.90
2022-12-18T06:17:19.210Z,99.90
2022-12-18T06:18:51.287Z,99.90
2022-12-18T06:20:26.920Z,99.90
2022-12-18T06:22:03.655Z,99.90
2022-12-18T06:23:39.181Z,99.90
2022-12-18T06:25:12.798Z,99.90
2022-12-18T06:26:46.155Z,99.90
2022-12-18T06:28:18.245Z,99.90
2022-12-18T06:29:51.496Z,99.90
2022-12-18T06:31:24.804Z,99.90
2022-12-18T06:32:57.955Z,99.90
2022-12-18T06:34:31.007Z,99.90
2022-12-18T06:36:05.658Z,99.90
2022-12-18T06:37:38.847Z,99.90
2022-12-18T06:39:13.298Z,99.90
2022-12-18T06:40:46.471Z,99.90
2022-12-18T06:42:19.553Z,99.90
2022-12-18T06:43:59.580Z,99.90
2022-12-18T06:45:33.180Z,99.90
2022-12-18T06:47:06.526Z,99.90
2022-12-18T06:48:39.799Z,99.90
2022-12-18T06:50:13.764Z,99.90
2022-12-18T06:51:46.838Z,99.90
2022-12-18T06:53:19.595Z,99.90
2022-12-18T06:54:53.991Z,99.90
2022-12-18T06:56:27.118Z,99.90
2022-12-18T06:57:59.186Z,99.90
2022-12-18T06:59:32.246Z,99.90
2022-12-18T07:01:07.875Z,99.90
2022-12-18T07:02:41.456Z,99.90
2022-12-18T07:04:14.724Z,99.90
2022-12-18T07:05:47.805Z,99.90
2022-12-18T07:07:21.927Z,99.90
2022-12-18T07:08:56.380Z,99.90
2022-12-18T07:10:30.841Z,99.90
2022-12-18T07:12:05.913Z,99.90
2022-12-18T07:13:39.466Z,99.90
2022-12-18T07:15:12.949Z,99.90
2022-12-18T07:16:46.099Z,99.90
2022-12-18T07:18:19.166Z,99.90
2022-12-18T07:19:52.242Z,99.90
2022-12-18T07:21:26.497Z,99.90
2022-12-18T07:22:59.550Z,99.90
2022-12-18T07:24:31.616Z,99.90
2022-12-18T07:26:07.799Z,99.90
2022-12-18T07:27:40.916Z,99.90
2022-12-18T07:29:14.232Z,99.90
2022-12-18T07:30:47.272Z,99.90
2022-12-18T07:32:20.820Z,99.90
2022-12-18T07:33:54.393Z,99.90
2022-12-18T07:35:31.385Z,99.90
2022-12-18T07:37:04.485Z,99.90
2022-12-18T07:38:36.877Z,99.90
2022-12-18T07:40:11.454Z,99.90
2022-12-18T07:42:06.543Z,99.90
2022-12-18T07:43:43.989Z,99.90
2022-12-18T07:45:17.472Z,99.90
2022-12-18T07:46:51.191Z,99.90
2022-12-18T07:48:24.370Z,99.90
2022-12-18T07:49:57.551Z,99.90
2022-12-18T07:51:31.445Z,99.90
2022-12-18T07:53:05.758Z,99.90
2022-12-18T07:54:38.859Z,99.90
2022-12-18T07:56:31.217Z,99.90
2022-12-18T07:58:06.462Z,99.90
2022-12-18T07:59:39.574Z,99.90
2022-12-18T08:01:13.992Z,99.90
2022-12-18T08:02:47.312Z,99.90
2022-12-18T08:04:21.761Z,99.90
2022-12-18T08:05:54.972Z,99.90
2022-12-18T08:07:28.035Z,99.90
2022-12-18T08:09:01.191Z,99.90
2022-12-18T08:10:34.681Z,99.90
2022-12-18T08:12:08.325Z,99.90
2022-12-18T08:13:42.930Z,99.90
2022-12-18T08:15:16.393Z,99.90
2022-12-18T08:16:49.523Z,99.90
2022-12-18T08:18:22.660Z,99.90
2022-12-18T08:19:55.730Z,99.90
2022-12-18T08:21:31.196Z,99.90
2022-12-18T08:23:04.283Z,99.90
2022-12-18T08:24:37.357Z,99.90
2022-12-18T08:26:10.908Z,99.90
2022-12-18T08:27:43.997Z,99.90
2022-12-18T08:29:21.561Z,99.90
2022-12-18T08:30:55.141Z,99.90
2022-12-18T08:32:29.415Z,99.90
2022-12-18T08:34:02.554Z,99.90
2022-12-18T08:35:44.075Z,99.90
2022-12-18T08:37:18.627Z,99.90
2022-12-18T08:38:52.252Z,99.90
2022-12-18T08:40:25.970Z,99.90
2022-12-18T08:42:16.517Z,99.90
2022-12-18T08:44:07.113Z,99.90
2022-12-18T08:45:41.586Z,99.90
2022-12-18T08:47:14.698Z,99.90
2022-12-18T08:48:47.782Z,99.90
2022-12-18T08:50:21.090Z,99.90
2022-12-18T08:51:58.065Z,99.90
2022-12-18T08:53:35.493Z,99.90
2022-12-18T08:55:10.559Z,99.90
2022-12-18T08:56:43.765Z,99.90
2022-12-18T08:58:16.841Z,99.90
2022-12-18T08:59:50.193Z,99.90
2022-12-18T09:01:25.192Z,99.90
2022-12-18T09:02:58.537Z,99.90
2022-12-18T09:04:31.685Z,99.90
2022-12-18T09:06:05.105Z,99.90
2022-12-18T09:07:38.322Z,99.90
2022-12-18T09:09:12.632Z,99.90
2022-12-18T09:10:46.743Z,99.90
2022-12-18T09:12:19.886Z,99.90
2022-12-18T09:13:54.756Z,99.90
2022-12-18T09:15:27.948Z,99.90
2022-12-18T09:17:02.409Z,99.90
2022-12-18T09:18:35.570Z,99.90
2022-12-18T09:20:09.914Z,99.90
2022-12-18T09:21:47.807Z,99.90
2022-12-18T09:23:22.044Z,99.90
2022-12-18T09:24:55.128Z,99.90
2022-12-18T09:26:28.979Z,99.90
2022-12-18T09:28:02.916Z,99.90
2022-12-18T09:29:36.228Z,99.90
2022-12-18T09:31:10.760Z,99.90
2022-12-18T09:32:45.239Z,99.90
2022-12-18T09:34:18.878Z,99.90
2022-12-18T09:35:52.000Z,99.90
2022-12-18T09:37:25.071Z,99.90
2022-12-18T09:38:58.177Z,99.90
2022-12-18T09:40:36.900Z,99.90
2022-12-18T09:42:20.492Z,99.90
2022-12-18T09:43:58.049Z,99.90
2022-12-18T09:45:32.510Z,99.90
2022-12-18T09:47:11.999Z,99.90
2022-12-18T09:48:49.783Z,99.90
2022-12-18T09:50:28.518Z,99.90
2022-12-18T09:52:06.692Z,99.90
2022-12-18T09:53:42.750Z,99.90
2022-12-18T09:55:22.844Z,99.90
2022-12-18T09:56:55.974Z,99.90
2022-12-18T09:58:33.681Z,99.90
2022-12-18T10:00:21.197Z,99.90
2022-12-18T10:01:54.442Z,99.90
2022-12-18T10:03:28.488Z,99.90
2022-12-18T10:05:13.725Z,99.90
2022-12-18T10:06:53.554Z,99.90
2022-12-18T10:08:35.928Z,99.90
2022-12-18T10:10:18.804Z,99.90
2022-12-18T10:11:59.968Z,99.90
2022-12-18T10:13:40.274Z,99.90
2022-12-18T10:15:21.972Z,99.90
2022-12-18T10:17:03.092Z,99.90
2022-12-18T10:18:51.111Z,99.90
2022-12-18T10:20:32.295Z,99.90
2022-12-18T10:22:16.083Z,99.90
2022-12-18T10:23:57.518Z,99.90
2022-12-18T10:25:36.654Z,99.90
2022-12-18T10:27:15.820Z,99.90
2022-12-18T10:28:49.087Z,99.90
2022-12-18T10:30:25.285Z,99.90
2022-12-18T10:31:58.324Z,99.90
2022-12-18T10:33:33.153Z,99.90
2022-12-18T10:35:07.189Z,99.90
2022-12-18T10:36:41.780Z,99.90
2022-12-18T10:38:26.166Z,99.90
2022-12-18T10:40:15.431Z,99.90
2022-12-18T10:42:13.000Z,99.90
2022-12-18T10:43:46.213Z,99.90
2022-12-18T10:45:19.728Z,99.90
2022-12-18T10:46:57.863Z,99.90
2022-12-18T10:48:32.146Z,99.90
2022-12-18T10:50:06.175Z,99.90
2022-12-18T10:51:41.405Z,99.90
2022-12-18T10:53:22.266Z,99.90
2022-12-18T10:54:59.296Z,99.90
2022-12-18T10:56:35.384Z,99.90
2022-12-18T10:58:27.122Z,99.90
2022-12-18T11:00:02.429Z,99.90
2022-12-18T11:01:49.867Z,99.90
2022-12-18T11:03:33.360Z,99.90
2022-12-18T11:05:26.399Z,99.90
2022-12-18T11:07:03.892Z,99.90
2022-12-18T11:08:37.686Z,99.90
2022-12-18T11:10:18.731Z,99.90
2022-12-18T11:11:53.331Z,99.90
2022-12-18T11:13:28.656Z,99.90
2022-12-18T11:15:01.848Z,99.90
2022-12-18T11:16:38.461Z,99.90
2022-12-18T11:18:21.789Z,99.90
2022-12-18T11:19:56.515Z,99.90
2022-12-18T11:21:29.615Z,99.90
2022-12-18T11:23:06.763Z,99.90
2022-12-18T11:24:39.851Z,99.90
2022-12-18T11:26:12.993Z,99.90
2022-12-18T11:27:50.938Z,99.90
2022-12-18T11:29:30.912Z,99.90
2022-12-18T11:31:23.914Z,99.90
2022-12-18T11:33:02.563Z,99.90
2022-12-18T11:34:36.190Z,99.90
2022-12-18T11:36:11.480Z,99.90
2022-12-18T11:37:48.256Z,99.90
2022-12-18T11:39:30.024Z,99.90
2022-12-18T11:41:09.336Z,99.90
2022-12-18T11:42:50.343Z,99.90
2022-12-18T11:44:28.603Z,99.90
2022-12-18T11:46:06.331Z,99.90
2022-12-18T11:47:46.147Z,99.90
2022-12-18T11:49:25.168Z,99.90
2022-12-18T11:51:00.318Z,99.90
2022-12-18T11:52:39.165Z,99.90
2022-12-18T11:54:15.666Z,99.90
2022-12-18T11:55:58.430Z,99.90
2022-12-18T11:57:39.113Z,99.90
2022-12-18T11:59:23.604Z,99.90
2022-12-18T12:01:05.485Z,99.90
2022-12-18T12:02:54.564Z,99.90
2022-12-18T12:05:03.209Z,99.90
2022-12-18T12:06:43.701Z,99.90
2022-12-18T12:08:28.432Z,99.90
2022-12-18T12:10:12.368Z,99.90
2022-12-18T12:11:59.539Z,99.90
2022-12-18T12:13:47.164Z,99.90
2022-12-18T12:15:32.100Z,99.90
2022-12-18T12:17:14.292Z,99.90
2022-12-18T12:18:58.540Z,99.90
2022-12-18T12:20:44.219Z,99.90
2022-12-18T12:22:26.449Z,99.90
2022-12-18T12:24:06.135Z,99.90
2022-12-18T12:25:46.271Z,99.90
2022-12-18T12:27:28.804Z,99.90
2022-12-18T12:29:21.370Z,99.90
2022-12-18T12:31:07.555Z,99.90
2022-12-18T12:33:01.285Z,99.90
2022-12-18T12:34:43.455Z,99.90
2022-12-18T12:36:24.665Z,99.90
2022-12-18T12:41:38.173Z,99.90
2022-12-18T12:43:27.881Z,99.90
2022-12-18T12:45:03.741Z,99.90
2022-12-18T12:46:41.707Z,99.90
2022-12-18T12:48:21.282Z,99.90
2022-12-18T12:49:56.398Z,99.90
2022-12-18T12:51:32.191Z,99.90
2022-12-18T12:53:13.593Z,99.90
2022-12-18T12:54:48.498Z,99.90
2022-12-18T12:56:23.365Z,99.90
2022-12-18T12:58:07.783Z,99.90
2022-12-18T12:59:51.769Z,99.90
2022-12-18T13:01:30.839Z,99.90
2022-12-18T13:03:14.364Z,99.90
2022-12-18T13:04:54.461Z,99.90
2022-12-18T13:06:44.395Z,99.90
2022-12-18T13:08:26.541Z,99.90
2022-12-18T13:10:26.959Z,99.90
2022-12-18T13:12:37.773Z,99.90
2022-12-18T13:14:24.538Z,99.90
2022-12-18T13:16:11.643Z,99.90
2022-12-18T13:17:44.823Z,99.90
2022-12-18T13:19:26.377Z,99.90
2022-12-18T13:21:23.335Z,99.90
2022-12-18T13:22:57.010Z,99.90
2022-12-18T13:24:33.888Z,99.90
2022-12-18T13:26:33.186Z,99.90
2022-12-18T13:28:10.148Z,51.10
2022-12-18T13:29:44.975Z,53.10
2022-12-18T13:32:09.280Z,53.90
2022-12-18T13:34:23.936Z,55.30
2022-12-18T13:35:41.923Z,56.60
2022-12-18T13:37:44.063Z,56.90
2022-12-18T13:39:30.319Z,57.50
2022-12-18T13:41:25.267Z,58.40
2022-12-18T13:43:15.647Z,58.50
2022-12-18T13:44:49.727Z,59.70
2022-12-18T13:46:26.692Z,60.90
2022-12-18T13:48:00.332Z,62.00
2022-12-18T13:49:41.345Z,63.90
2022-12-18T13:51:19.778Z,64.50
2022-12-18T13:52:54.512Z,64.70
2022-12-18T13:54:32.579Z,66.40
2022-12-18T13:56:07.170Z,66.30
2022-12-18T13:57:41.739Z,66.80
2022-12-18T13:59:18.774Z,67.00
2022-12-18T14:00:55.300Z,66.50
2022-12-18T14:02:31.269Z,66.60
2022-12-18T14:04:18.666Z,66.50
2022-12-18T14:05:58.661Z,66.60
2022-12-18T14:07:34.643Z,66.80
2022-12-18T14:09:21.338Z,67.40
2022-12-18T14:10:55.060Z,67.80
2022-12-18T14:12:48.148Z,67.80
2022-12-18T14:14:22.782Z,68.20
2022-12-18T14:15:59.215Z,68.40
2022-12-18T14:17:38.274Z,69.50
2022-12-18T14:19:15.961Z,70.10
2022-12-18T14:20:52.820Z,71.00
2022-12-18T14:22:30.489Z,70.90
2022-12-18T14:24:17.579Z,70.90
2022-12-18T14:25:52.957Z,72.30
2022-12-18T14:27:28.329Z,72.50
2022-12-18T14:29:19.551Z,73.00
2022-12-18T14:30:54.371Z,73.00
2022-12-18T14:32:27.491Z,73.60
2022-12-18T14:34:02.453Z,73.60
2022-12-18T14:35:36.777Z,75.00
2022-12-18T14:37:12.344Z,77.30
2022-12-18T14:38:49.653Z,77.80
2022-12-18T14:40:22.851Z,78.50
2022-12-18T14:41:56.106Z,80.80
2022-12-18T14:43:30.661Z,82.50
2022-12-18T14:45:41.405Z,82.90
2022-12-18T14:47:17.972Z,81.70
2022-12-18T14:48:51.098Z,83.40
2022-12-18T14:50:25.746Z,84.00
2022-12-18T14:52:02.598Z,85.50
2022-12-18T14:53:39.491Z,86.10
2022-12-18T14:55:18.004Z,85.40
2022-12-18T14:56:53.226Z,85.50
2022-12-18T14:58:29.454Z,85.00
2022-12-18T15:00:07.751Z,85.00
2022-12-18T15:01:49.570Z,86.00
2022-12-18T15:03:23.875Z,85.80
2022-12-18T15:05:07.232Z,86.10
2022-12-18T15:06:44.530Z,86.10
2022-12-18T15:08:36.205Z,85.80
2022-12-18T15:10:14.539Z,86.00
2022-12-18T15:11:48.937Z,85.90
2022-12-18T15:13:25.363Z,87.50
2022-12-18T15:14:58.853Z,89.10
2022-12-18T15:16:32.057Z,89.30
2022-12-18T15:18:07.805Z,88.70
2022-12-18T15:19:42.541Z,88.20
2022-12-18T15:21:20.022Z,88.40
2022-12-18T15:22:54.911Z,89.60
2022-12-18T15:24:32.658Z,91.30
2022-12-18T15:26:09.585Z,92.30
2022-12-18T15:27:48.867Z,93.20
2022-12-18T15:29:23.713Z,92.30
2022-12-18T15:31:08.866Z,92.60
2022-12-18T15:32:42.451Z,93.00
2022-12-18T15:34:21.546Z,92.30
2022-12-18T15:35:59.467Z,93.20
2022-12-18T15:37:32.757Z,94.10
2022-12-18T15:39:07.627Z,94.50
2022-12-18T15:40:41.440Z,94.90
2022-12-18T15:42:32.054Z,94.50
2022-12-18T15:44:23.039Z,96.10
2022-12-18T15:45:56.187Z,96.20
2022-12-18T15:47:29.336Z,96.30
2022-12-18T15:49:04.583Z,96.20
2022-12-18T15:50:37.742Z,95.90
2022-12-18T15:52:26.807Z,96.30
2022-12-18T15:54:04.639Z,97.10
2022-12-18T15:56:00.986Z,97.60
2022-12-18T15:57:33.834Z,97.70
2022-12-18T15:59:10.776Z,97.90
2022-12-18T16:00:43.945Z,97.50
2022-12-18T16:02:23.778Z,97.10
2022-12-18T16:03:57.509Z,96.40
2022-12-18T16:05:32.787Z,95.10
2022-12-18T16:07:14.976Z,94.10
2022-12-18T16:08:49.538Z,93.90
2022-12-18T16:10:22.079Z,93.70
2022-12-18T16:11:56.903Z,94.00
2022-12-18T16:13:32.771Z,94.80
2022-12-18T16:15:07.760Z,95.70
2022-12-18T16:16:42.536Z,95.20
2022-12-18T16:18:15.708Z,94.70
2022-12-18T16:19:49.939Z,94.90
2022-12-18T16:21:22.994Z,94.60
2022-12-18T16:22:58.317Z,94.90
2022-12-18T16:24:34.055Z,95.00
2022-12-18T16:26:07.275Z,94.70
2022-12-18T16:27:41.950Z,94.90
2022-12-18T16:29:16.995Z,94.60
2022-12-18T16:30:50.120Z,94.60
2022-12-18T16:32:24.537Z,94.60
2022-12-18T16:34:15.267Z,94.60
2022-12-18T16:35:54.044Z,94.30
2022-12-18T16:37:27.755Z,94.30
2022-12-18T16:39:00.861Z,94.60
2022-12-18T16:40:56.831Z,94.50
2022-12-18T16:42:29.881Z,94.40
2022-12-18T16:44:04.921Z,94.90
2022-12-18T16:45:38.487Z,95.30
2022-12-18T16:47:15.004Z,95.40
2022-12-18T16:48:48.487Z,95.40
2022-12-18T16:50:21.665Z,95.50
2022-12-18T16:51:54.783Z,96.50
2022-12-18T16:53:27.889Z,97.70
2022-12-18T16:55:01.877Z,97.10
2022-12-18T16:56:35.569Z,97.00
2022-12-18T16:58:08.698Z,95.70
2022-12-18T16:59:43.287Z,95.10
2022-12-18T17:01:16.495Z,94.80
2022-12-18T17:02:49.902Z,94.90
2022-12-18T17:04:23.238Z,95.20
2022-12-18T17:05:56.580Z,94.90
2022-12-18T17:07:29.859Z,95.40
2022-12-18T17:09:06.478Z,96.40
2022-12-18T17:10:39.538Z,96.50
2022-12-18T17:12:13.244Z,96.40
2022-12-18T17:13:46.303Z,96.50
2022-12-18T17:15:20.936Z,96.20
2022-12-18T17:17:19.899Z,95.90
2022-12-18T17:18:48.282Z,95.80
2022-12-18T17:20:21.399Z,96.00
2022-12-18T17:21:54.885Z,95.80
2022-12-18T17:23:29.035Z,96.10
2022-12-18T17:25:02.245Z,97.00
2022-12-18T17:26:35.362Z,97.00
2022-12-18T17:28:08.434Z,97.30
2022-12-18T17:29:47.230Z,97.20
2022-12-18T17:31:25.815Z,97.50
2022-12-18T17:32:58.910Z,98.10
2022-12-18T17:34:31.999Z,97.80
2022-12-18T17:36:05.698Z,97.50
2022-12-18T17:37:38.849Z,97.00
2022-12-18T17:39:18.542Z,97.00
2022-12-18T17:40:52.155Z,96.40
2022-12-18T17:42:26.283Z,96.20
2022-12-18T17:44:01.394Z,96.30
2022-12-18T17:45:37.275Z,95.60
2022-12-18T17:47:12.959Z,95.50
2022-12-18T17:48:46.413Z,95.40
2022-12-18T17:50:19.584Z,94.90
2022-12-18T17:51:53.747Z,95.20
2022-12-18T17:53:26.892Z,95.10
2022-12-18T17:55:00.015Z,94.90
2022-12-18T17:56:33.199Z,95.00
2022-12-18T17:58:07.407Z,94.80
2022-12-18T17:59:40.445Z,94.30
2022-12-18T18:01:15.637Z,93.50
2022-12-18T18:02:50.722Z,92.90
2022-12-18T18:04:23.992Z,92.30
2022-12-18T18:05:57.618Z,92.20
2022-12-18T18:07:30.758Z,92.30
2022-12-18T18:09:04.040Z,91.80
2022-12-18T18:10:38.533Z,91.70
2022-12-18T18:12:28.961Z,91.40
2022-12-18T18:14:01.545Z,91.10
2022-12-18T18:15:34.821Z,91.10
2022-12-18T18:17:10.834Z,91.20
2022-12-18T18:18:45.299Z,91.40
2022-12-18T18:20:22.491Z,91.70
2022-12-18T18:21:55.922Z,91.70
2022-12-18T18:23:31.174Z,91.70
2022-12-18T18:25:04.561Z,91.50
2022-12-18T18:26:42.492Z,91.30
2022-12-18T18:28:15.717Z,91.30
2022-12-18T18:29:48.961Z,91.20
2022-12-18T18:31:22.133Z,91.10
2022-12-18T18:32:58.006Z,90.80
2022-12-18T18:34:34.508Z,90.50
2022-12-18T18:36:11.530Z,90.50
2022-12-18T18:37:44.614Z,90.50
2022-12-18T18:39:18.435Z,90.50
2022-12-18T18:41:00.052Z,90.50
2022-12-18T18:42:33.144Z,90.50
2022-12-18T18:44:06.628Z,90.60
2022-12-18T18:45:39.854Z,90.10
2022-12-18T18:47:15.078Z,90.20
2022-12-18T18:48:48.149Z,90.40
2022-12-18T18:50:22.809Z,90.30
2022-12-18T18:51:56.679Z,89.80
2022-12-18T18:53:30.217Z,90.10
2022-12-18T18:55:13.353Z,89.60
2022-12-18T18:58:40.374Z,88.90
2022-12-18T19:00:15.352Z,88.40
2022-12-18T19:01:50.300Z,88.60
2022-12-18T19:03:25.580Z,88.40
2022-12-18T19:04:59.564Z,88.50
2022-12-18T19:06:34.316Z,88.40
2022-12-18T19:08:08.533Z,87.50
2022-12-18T19:09:41.864Z,87.60
2022-12-18T19:11:36.554Z,86.90
2022-12-18T19:13:24.819Z,86.00
2022-12-18T19:14:58.015Z,86.00
2022-12-18T19:16:31.435Z,85.90
2022-12-18T19:18:05.189Z,85.70
2022-12-18T19:19:38.475Z,85.70
2022-12-18T19:21:12.663Z,85.60
2022-12-18T19:22:55.800Z,84.90
2022-12-18T19:24:29.310Z,84.00
2022-12-18T19:26:26.994Z,84.50
2022-12-18T19:27:56.082Z,84.60
2022-12-18T19:29:29.273Z,84.50
2022-12-18T19:31:05.662Z,84.40
2022-12-18T19:32:38.788Z,83.70
2022-12-18T19:34:13.054Z,83.40
2022-12-18T19:35:46.106Z,83.20
2022-12-18T19:37:19.530Z,82.40
2022-12-18T19:38:55.567Z,81.70
2022-12-18T19:40:28.849Z,81.00
2022-12-18T19:42:02.153Z,80.10
2022-12-18T19:43:37.624Z,80.00
2022-12-18T19:45:12.713Z,80.00
2022-12-18T19:46:47.059Z,80.10
2022-12-18T19:48:20.164Z,79.80
2022-12-18T19:49:53.261Z,79.40
2022-12-18T19:51:28.842Z,79.40
2022-12-18T19:53:01.984Z,78.70
2022-12-18T19:54:37.068Z,78.90
2022-12-18T19:56:13.569Z,78.80
2022-12-18T19:57:46.742Z,77.80
2022-12-18T19:59:19.859Z,78.00
2022-12-18T20:00:53.113Z,78.20
2022-12-18T20:02:26.383Z,78.10
2022-12-18T20:04:00.962Z,78.30
2022-12-18T20:05:34.864Z,78.10
2022-12-18T20:07:07.914Z,78.00
2022-12-18T20:08:41.684Z,77.10
2022-12-18T20:10:16.199Z,76.10
2022-12-18T20:11:52.559Z,75.40
2022-12-18T20:13:25.715Z,75.70
2022-12-18T20:15:00.802Z,76.00
2022-12-18T20:16:34.039Z,75.20
2022-12-18T20:18:07.333Z,75.90
2022-12-18T20:19:41.727Z,75.30
2022-12-18T20:21:14.843Z,75.50
2022-12-18T20:22:47.890Z,75.10
2022-12-18T20:24:21.109Z,74.90
2022-12-18T20:25:56.874Z,74.00
2022-12-18T20:27:29.975Z,73.60
2022-12-18T20:29:03.103Z,73.60
2022-12-18T20:30:36.183Z,73.10
2022-12-18T20:32:09.375Z,73.10
2022-12-18T20:33:43.588Z,73.10
2022-12-18T20:35:20.637Z,74.10
2022-12-18T20:36:54.270Z,73.90
2022-12-18T20:38:27.750Z,73.10
2022-12-18T20:40:01.246Z,73.40
2022-12-18T20:41:38.475Z,73.20
2022-12-18T20:43:16.843Z,72.80
2022-12-18T20:44:50.436Z,72.80
2022-12-18T20:46:24.525Z,73.00
2022-12-18T20:47:59.365Z,73.10
2022-12-18T20:49:32.513Z,73.40
2022-12-18T20:51:08.327Z,73.40